Terminal Aerodrome Forecast
Issued by NWS

Home | Current Version | Previous Version | Text Only | Print | Product List | Glossary On
Versions: 1 2 3 4 5 6 7 8 9 10 11 12
529
FTUS43 KICT 031138
TAFCNU
TAF
KCNU 031138Z 0312/0412 07006KT P6SM SCT060 OVC100
     FM031800 13004KT P6SM SCT050 OVC090
     FM040000 00000KT 6SM -RA OVC030
     FM040300 13004KT 3SM -RA OVC015
     FM040500 VRB03KT 2SM -RA OVC010=

USA.gov is the U.S. government's official web portal to all federal, state and local government web resources and services.